sensor_id;sensor_type;location;lat;lon;timestamp;pressure;altitude;pressure_sealevel;temperature;humidity
44441;BME280;30146;52.268;20.944;2023-01-19T00:01:40;99058.27;;;3.49;74.32
44441;BME280;30146;52.268;20.944;2023-01-19T00:04:08;99070.11;;;3.49;74.31
44441;BME280;30146;52.268;20.944;2023-01-19T00:06:36;99086.67;;;3.48;74.28
44441;BME280;30146;52.268;20.944;2023-01-19T00:09:04;99097.98;;;3.46;74.03
44441;BME280;30146;52.268;20.944;2023-01-19T00:11:32;99101.88;;;3.44;73.78
44441;BME280;30146;52.268;20.944;2023-01-19T00:14:00;99097.83;;;3.41;74.36
44441;BME280;30146;52.268;20.944;2023-01-19T00:16:28;99101.20;;;3.42;74.55
44441;BME280;30146;52.268;20.944;2023-01-19T00:18:56;99106.27;;;3.41;74.06
44441;BME280;30146;52.268;20.944;2023-01-19T00:21:24;99114.71;;;3.40;74.32
44441;BME280;30146;52.268;20.944;2023-01-19T00:23:52;99111.16;;;3.41;74.50
44441;BME280;30146;52.268;20.944;2023-01-19T00:26:21;99107.80;;;3.41;74.37
44441;BME280;30146;52.268;20.944;2023-01-19T00:28:49;99113.20;;;3.42;74.27
44441;BME280;30146;52.268;20.944;2023-01-19T00:31:17;99121.48;;;3.43;74.43
44441;BME280;30146;52.268;20.944;2023-01-19T00:33:46;99128.23;;;3.44;74.47
44441;BME280;30146;52.268;20.944;2023-01-19T00:36:16;99130.75;;;3.47;74.86
44441;BME280;30146;52.268;20.944;2023-01-19T00:38:44;99139.88;;;3.51;74.73
44441;BME280;30146;52.268;20.944;2023-01-19T00:41:12;99142.07;;;3.52;74.77
44441;BME280;30146;52.268;20.944;2023-01-19T00:43:40;99145.29;;;3.53;74.43
44441;BME280;30146;52.268;20.944;2023-01-19T00:46:08;99157.45;;;3.55;74.23
44441;BME280;30146;52.268;20.944;2023-01-19T00:48:36;99158.47;;;3.57;74.55
44441;BME280;30146;52.268;20.944;2023-01-19T00:51:05;99156.44;;;3.60;74.52
44441;BME280;30146;52.268;20.944;2023-01-19T00:53:33;99156.27;;;3.63;74.61
44441;BME280;30146;52.268;20.944;2023-01-19T00:56:01;99155.92;;;3.65;74.65
44441;BME280;30146;52.268;20.944;2023-01-19T00:58:29;99151.19;;;3.69;74.26
44441;BME280;30146;52.268;20.944;2023-01-19T01:00:57;99142.58;;;3.71;74.45
44441;BME280;30146;52.268;20.944;2023-01-19T01:03:29;99136.48;;;3.74;74.86
44441;BME280;30146;52.268;20.944;2023-01-19T01:05:57;99135.48;;;3.77;74.35
44441;BME280;30146;52.268;20.944;2023-01-19T01:08:25;99141.21;;;3.80;74.59
44441;BME280;30146;52.268;20.944;2023-01-19T01:10:54;99142.22;;;3.82;74.60
44441;BME280;30146;52.268;20.944;2023-01-19T01:13:22;99140.52;;;3.84;74.32
44441;BME280;30146;52.268;20.944;2023-01-19T01:15:55;99139.52;;;3.85;74.43
44441;BME280;30146;52.268;20.944;2023-01-19T01:18:24;99137.66;;;3.87;74.53
44441;BME280;30146;52.268;20.944;2023-01-19T01:20:52;99133.26;;;3.89;74.47
44441;BME280;30146;52.268;20.944;2023-01-19T01:23:26;99132.58;;;3.88;74.42
44441;BME280;30146;52.268;20.944;2023-01-19T01:25:54;99133.42;;;3.91;74.19
44441;BME280;30146;52.268;20.944;2023-01-19T01:28:23;99132.40;;;3.91;74.18
44441;BME280;30146;52.268;20.944;2023-01-19T01:30:53;99130.88;;;3.91;74.35
44441;BME280;30146;52.268;20.944;2023-01-19T01:33:21;99126.14;;;3.93;74.12
44441;BME280;30146;52.268;20.944;2023-01-19T01:36:09;99127.83;;;3.95;74.42
44441;BME280;30146;52.268;20.944;2023-01-19T01:38:38;99128.34;;;3.96;74.14
44441;BME280;30146;52.268;20.944;2023-01-19T01:41:06;99125.80;;;3.98;74.52
44441;BME280;30146;52.268;20.944;2023-01-19T01:43:45;99118.02;;;3.97;74.15
44441;BME280;30146;52.268;20.944;2023-01-19T01:46:14;99119.04;;;3.97;74.07
44441;BME280;30146;52.268;20.944;2023-01-19T01:48:48;99122.23;;;3.99;74.25
44441;BME280;30146;52.268;20.944;2023-01-19T01:51:23;99118.86;;;3.98;74.00
44441;BME280;30146;52.268;20.944;2023-01-19T01:54:10;99116.66;;;3.99;74.26
44441;BME280;30146;52.268;20.944;2023-01-19T01:56:43;99112.43;;;3.99;74.13
44441;BME280;30146;52.268;20.944;2023-01-19T01:59:15;99111.25;;;4.00;73.95
44441;BME280;30146;52.268;20.944;2023-01-19T02:01:52;99112.44;;;3.99;73.92
44441;BME280;30146;52.268;20.944;2023-01-19T02:04:41;99115.48;;;3.99;73.88
44441;BME280;30146;52.268;20.944;2023-01-19T02:07:13;99115.31;;;3.99;73.77
44441;BME280;30146;52.268;20.944;2023-01-19T02:10:02;99108.37;;;4.01;73.73
44441;BME280;30146;52.268;20.944;2023-01-19T02:12:49;99101.11;;;4.01;73.95
44441;BME280;30146;52.268;20.944;2023-01-19T02:15:35;99107.36;;;4.00;73.76
44441;BME280;30146;52.268;20.944;2023-01-19T02:18:04;99109.41;;;3.96;73.66
44441;BME280;30146;52.268;20.944;2023-01-19T02:20:35;99109.08;;;3.95;73.57
44441;BME280;30146;52.268;20.944;2023-01-19T02:23:09;99109.42;;;3.93;73.64
44441;BME280;30146;52.268;20.944;2023-01-19T02:25:42;99110.92;;;3.92;73.88
44441;BME280;30146;52.268;20.944;2023-01-19T02:28:10;99111.95;;;3.90;73.26
44441;BME280;30146;52.268;20.944;2023-01-19T02:30:40;99113.83;;;3.89;73.84
44441;BME280;30146;52.268;20.944;2023-01-19T02:33:09;99117.19;;;3.88;73.50
44441;BME280;30146;52.268;20.944;2023-01-19T02:35:39;99115.84;;;3.88;73.86
44441;BME280;30146;52.268;20.944;2023-01-19T02:38:08;99112.63;;;3.88;73.73
44441;BME280;30146;52.268;20.944;2023-01-19T02:40:37;99113.30;;;3.89;73.76
44441;BME280;30146;52.268;20.944;2023-01-19T02:43:09;99113.48;;;3.87;73.85
44441;BME280;30146;52.268;20.944;2023-01-19T02:45:39;99116.02;;;3.87;73.24
44441;BME280;30146;52.268;20.944;2023-01-19T02:48:07;99116.70;;;3.85;73.29
44441;BME280;30146;52.268;20.944;2023-01-19T02:50:40;99118.39;;;3.84;73.30
44441;BME280;30146;52.268;20.944;2023-01-19T02:53:29;99120.42;;;3.83;73.17
44441;BME280;30146;52.268;20.944;2023-01-19T02:56:09;99126.33;;;3.81;73.46
44441;BME280;30146;52.268;20.944;2023-01-19T02:58:46;99129.04;;;3.80;73.08
44441;BME280;30146;52.268;20.944;2023-01-19T03:01:22;99133.60;;;3.79;73.36
44441;BME280;30146;52.268;20.944;2023-01-19T03:03:55;99132.08;;;3.79;73.60
44441;BME280;30146;52.268;20.944;2023-01-19T03:06:35;99131.40;;;3.80;73.48
44441;BME280;30146;52.268;20.944;2023-01-19T03:09:12;99129.20;;;3.82;73.23
44441;BME280;30146;52.268;20.944;2023-01-19T03:11:53;99122.11;;;3.83;73.34
44441;BME280;30146;52.268;20.944;2023-01-19T03:14:29;99111.79;;;3.84;73.17
44441;BME280;30146;52.268;20.944;2023-01-19T03:17:01;99109.59;;;3.86;73.26
44441;BME280;30146;52.268;20.944;2023-01-19T03:19:34;99109.76;;;3.88;73.41
44441;BME280;30146;52.268;20.944;2023-01-19T03:22:06;99109.42;;;3.89;73.35
44441;BME280;30146;52.268;20.944;2023-01-19T03:24:38;99116.17;;;3.90;73.42
44441;BME280;30146;52.268;20.944;2023-01-19T03:27:10;99121.25;;;3.91;73.51
44441;BME280;30146;52.268;20.944;2023-01-19T03:29:41;99126.65;;;3.92;73.44
44441;BME280;30146;52.268;20.944;2023-01-19T03:32:16;99134.27;;;3.92;73.45
44441;BME280;30146;52.268;20.944;2023-01-19T03:34:46;99134.94;;;3.93;73.62
44441;BME280;30146;52.268;20.944;2023-01-19T03:37:17;99136.27;;;3.95;73.34
44441;BME280;30146;52.268;20.944;2023-01-19T03:39:46;99136.79;;;3.96;73.52
44441;BME280;30146;52.268;20.944;2023-01-19T03:42:15;99139.48;;;3.98;73.59
44441;BME280;30146;52.268;20.944;2023-01-19T03:44:45;99142.35;;;4.01;73.61
44441;BME280;30146;52.268;20.944;2023-01-19T03:47:17;99147.09;;;4.03;73.34
44441;BME280;30146;52.268;20.944;2023-01-19T03:49:47;99149.11;;;4.02;73.18
44441;BME280;30146;52.268;20.944;2023-01-19T03:52:17;99153.00;;;3.98;73.22
44441;BME280;30146;52.268;20.944;2023-01-19T03:54:44;99153.70;;;3.95;72.83
44441;BME280;30146;52.268;20.944;2023-01-19T03:57:12;99155.55;;;3.93;73.02
44441;BME280;30146;52.268;20.944;2023-01-19T03:59:40;99160.80;;;3.93;72.88
44441;BME280;30146;52.268;20.944;2023-01-19T04:02:08;99165.20;;;3.93;73.18
44441;BME280;30146;52.268;20.944;2023-01-19T04:04:36;99170.95;;;3.92;73.01
44441;BME280;30146;52.268;20.944;2023-01-19T04:07:04;99172.83;;;3.90;72.96
44441;BME280;30146;52.268;20.944;2023-01-19T04:09:33;99181.95;;;3.90;73.09
44441;BME280;30146;52.268;20.944;2023-01-19T04:12:01;99183.13;;;3.87;73.12
44441;BME280;30146;52.268;20.944;2023-01-19T04:14:30;99186.18;;;3.83;73.09
44441;BME280;30146;52.268;20.944;2023-01-19T04:16:58;99186.02;;;3.81;73.28
44441;BME280;30146;52.268;20.944;2023-01-19T04:19:26;99184.98;;;3.80;72.94
44441;BME280;30146;52.268;20.944;2023-01-19T04:21:54;99191.24;;;3.78;72.97
44441;BME280;30146;52.268;20.944;2023-01-19T04:24:23;99198.02;;;3.76;73.34
44441;BME280;30146;52.268;20.944;2023-01-19T04:26:51;99197.67;;;3.73;72.60
44441;BME280;30146;52.268;20.944;2023-01-19T04:29:19;99194.80;;;3.70;73.05
44441;BME280;30146;52.268;20.944;2023-01-19T04:31:47;99194.45;;;3.66;73.35
44441;BME280;30146;52.268;20.944;2023-01-19T04:34:15;99199.36;;;3.63;73.27
44441;BME280;30146;52.268;20.944;2023-01-19T04:36:43;99203.41;;;3.63;73.60
44441;BME280;30146;52.268;20.944;2023-01-19T04:39:13;99206.11;;;3.63;73.28
44441;BME280;30146;52.268;20.944;2023-01-19T04:41:41;99208.48;;;3.62;73.37
44441;BME280;30146;52.268;20.944;2023-01-19T04:44:10;99208.48;;;3.60;73.24
44441;BME280;30146;52.268;20.944;2023-01-19T04:46:38;99210.52;;;3.59;73.28
44441;BME280;30146;52.268;20.944;2023-01-19T04:49:07;99214.06;;;3.57;73.18
44441;BME280;30146;52.268;20.944;2023-01-19T04:51:35;99219.46;;;3.55;72.97
44441;BME280;30146;52.268;20.944;2023-01-19T04:54:03;99219.11;;;3.51;73.57
44441;BME280;30146;52.268;20.944;2023-01-19T04:56:31;99221.83;;;3.49;73.42
44441;BME280;30146;52.268;20.944;2023-01-19T04:58:59;99225.88;;;3.45;73.32
44441;BME280;30146;52.268;20.944;2023-01-19T05:01:28;99228.90;;;3.42;73.35
44441;BME280;30146;52.268;20.944;2023-01-19T05:03:58;99229.73;;;3.40;73.43
44441;BME280;30146;52.268;20.944;2023-01-19T05:06:27;99230.94;;;3.40;73.51
44441;BME280;30146;52.268;20.944;2023-01-19T05:08:55;99234.31;;;3.39;73.48
44441;BME280;30146;52.268;20.944;2023-01-19T05:11:23;99235.31;;;3.38;73.78
44441;BME280;30146;52.268;20.944;2023-01-19T05:13:51;99233.46;;;3.39;73.19
44441;BME280;30146;52.268;20.944;2023-01-19T05:16:19;99237.86;;;3.40;73.39
44441;BME280;30146;52.268;20.944;2023-01-19T05:18:47;99246.98;;;3.39;73.70
44441;BME280;30146;52.268;20.944;2023-01-19T05:21:15;99246.30;;;3.37;73.38
44441;BME280;30146;52.268;20.944;2023-01-19T05:23:43;99240.04;;;3.33;73.48
44441;BME280;30146;52.268;20.944;2023-01-19T05:26:11;99240.20;;;3.32;73.35
44441;BME280;30146;52.268;20.944;2023-01-19T05:28:39;99236.15;;;3.33;73.51
44441;BME280;30146;52.268;20.944;2023-01-19T05:31:07;99233.64;;;3.35;73.51
44441;BME280;30146;52.268;20.944;2023-01-19T05:33:35;99236.84;;;3.36;73.52
44441;BME280;30146;52.268;20.944;2023-01-19T05:36:04;99239.20;;;3.35;73.70
44441;BME280;30146;52.268;20.944;2023-01-19T05:38:32;99247.31;;;3.36;73.66
44441;BME280;30146;52.268;20.944;2023-01-19T05:41:03;99254.73;;;3.33;73.32
44441;BME280;30146;52.268;20.944;2023-01-19T05:43:31;99255.09;;;3.32;73.70
44441;BME280;30146;52.268;20.944;2023-01-19T05:45:59;99256.75;;;3.30;73.80
44441;BME280;30146;52.268;20.944;2023-01-19T05:48:27;99258.94;;;3.26;73.14
44441;BME280;30146;52.268;20.944;2023-01-19T05:50:57;99255.21;;;3.23;73.21
44441;BME280;30146;52.268;20.944;2023-01-19T05:53:26;99254.20;;;3.22;73.50
44441;BME280;30146;52.268;20.944;2023-01-19T05:55:59;99256.05;;;3.21;73.41
44441;BME280;30146;52.268;20.944;2023-01-19T05:58:30;99258.92;;;3.19;73.72
44441;BME280;30146;52.268;20.944;2023-01-19T06:01:01;99256.56;;;3.21;73.56
44441;BME280;30146;52.268;20.944;2023-01-19T06:03:33;99263.31;;;3.22;73.90
44441;BME280;30146;52.268;20.944;2023-01-19T06:06:03;99270.92;;;3.25;73.75
44441;BME280;30146;52.268;20.944;2023-01-19T06:08:32;99274.98;;;3.28;73.98
44441;BME280;30146;52.268;20.944;2023-01-19T06:11:06;99281.92;;;3.31;74.07
44441;BME280;30146;52.268;20.944;2023-01-19T06:13:34;99283.11;;;3.32;74.08
44441;BME280;30146;52.268;20.944;2023-01-19T06:16:03;99281.23;;;3.30;73.52
44441;BME280;30146;52.268;20.944;2023-01-19T06:18:31;99283.44;;;3.27;73.59
44441;BME280;30146;52.268;20.944;2023-01-19T06:21:02;99286.14;;;3.27;73.64
44441;BME280;30146;52.268;20.944;2023-01-19T06:23:32;99298.80;;;3.30;73.71
44441;BME280;30146;52.268;20.944;2023-01-19T06:26:00;99309.62;;;3.31;73.59
44441;BME280;30146;52.268;20.944;2023-01-19T06:28:29;99323.14;;;3.33;73.76
44441;BME280;30146;52.268;20.944;2023-01-19T06:30:57;99329.73;;;3.32;73.75
44441;BME280;30146;52.268;20.944;2023-01-19T06:33:25;99338.16;;;3.29;73.39
44441;BME280;30146;52.268;20.944;2023-01-19T06:35:54;99340.69;;;3.28;73.79
44441;BME280;30146;52.268;20.944;2023-01-19T06:38:23;99342.38;;;3.30;73.54
44441;BME280;30146;52.268;20.944;2023-01-19T06:40:55;99345.08;;;3.29;73.58
44441;BME280;30146;52.268;20.944;2023-01-19T06:43:25;99347.28;;;3.30;73.95
44441;BME280;30146;52.268;20.944;2023-01-19T06:45:53;99352.18;;;3.28;73.69
44441;BME280;30146;52.268;20.944;2023-01-19T06:48:23;99356.04;;;3.25;73.55
44441;BME280;30146;52.268;20.944;2023-01-19T06:50:51;99364.65;;;3.21;73.45
44441;BME280;30146;52.268;20.944;2023-01-19T06:53:19;99371.23;;;3.20;73.23
44441;BME280;30146;52.268;20.944;2023-01-19T06:55:48;99370.88;;;3.19;73.47
44441;BME280;30146;52.268;20.944;2023-01-19T06:58:16;99365.98;;;3.20;73.81
44441;BME280;30146;52.268;20.944;2023-01-19T07:00:44;99367.68;;;3.21;73.40
44441;BME280;30146;52.268;20.944;2023-01-19T07:03:19;99364.80;;;3.18;73.62
44441;BME280;30146;52.268;20.944;2023-01-19T07:05:49;99363.61;;;3.20;73.86
44441;BME280;30146;52.268;20.944;2023-01-19T07:08:18;99354.34;;;3.20;74.08
44441;BME280;30146;52.268;20.944;2023-01-19T07:10:46;99351.80;;;3.20;73.74
44441;BME280;30146;52.268;20.944;2023-01-19T07:13:34;99352.15;;;3.22;73.85
44441;BME280;30146;52.268;20.944;2023-01-19T07:16:05;99341.01;;;3.25;74.09
44441;BME280;30146;52.268;20.944;2023-01-19T07:18:35;99339.84;;;3.29;73.94
44441;BME280;30146;52.268;20.944;2023-01-19T07:21:04;99335.64;;;3.31;74.03
44441;BME280;30146;52.268;20.944;2023-01-19T07:23:32;99336.99;;;3.34;73.58
44441;BME280;30146;52.268;20.944;2023-01-19T07:26:00;99342.23;;;3.38;74.11
44441;BME280;30146;52.268;20.944;2023-01-19T07:28:29;99349.02;;;3.40;74.12
44441;BME280;30146;52.268;20.944;2023-01-19T07:30:58;99348.19;;;3.43;73.82
44441;BME280;30146;52.268;20.944;2023-01-19T07:33:26;99343.97;;;3.45;74.04
44441;BME280;30146;52.268;20.944;2023-01-19T07:35:55;99338.73;;;3.47;73.94
44441;BME280;30146;52.268;20.944;2023-01-19T07:38:23;99338.91;;;3.49;73.86
44441;BME280;30146;52.268;20.944;2023-01-19T07:40:51;99338.07;;;3.51;74.11
44441;BME280;30146;52.268;20.944;2023-01-19T07:43:19;99342.13;;;3.53;73.80
44441;BME280;30146;52.268;20.944;2023-01-19T07:45:47;99343.48;;;3.53;73.66
44441;BME280;30146;52.268;20.944;2023-01-19T07:48:15;99346.85;;;3.51;73.63
44441;BME280;30146;52.268;20.944;2023-01-19T07:50:43;99349.56;;;3.52;73.61
44441;BME280;30146;52.268;20.944;2023-01-19T07:53:11;99356.48;;;3.53;73.85
44441;BME280;30146;52.268;20.944;2023-01-19T07:55:39;99367.48;;;3.54;73.92
44441;BME280;30146;52.268;20.944;2023-01-19T07:58:07;99372.72;;;3.56;73.92
44441;BME280;30146;52.268;20.944;2023-01-19T08:00:37;99379.46;;;3.54;73.49
44441;BME280;30146;52.268;20.944;2023-01-19T08:03:06;99387.91;;;3.52;73.60
44441;BME280;30146;52.268;20.944;2023-01-19T08:05:35;99390.42;;;3.50;73.35
44441;BME280;30146;52.268;20.944;2023-01-19T08:08:03;99391.45;;;3.51;73.68
44441;BME280;30146;52.268;20.944;2023-01-19T08:10:32;99390.95;;;3.53;73.67
44441;BME280;30146;52.268;20.944;2023-01-19T08:13:01;99389.27;;;3.54;73.77
44441;BME280;30146;52.268;20.944;2023-01-19T08:15:29;99383.20;;;3.55;73.58
44441;BME280;30146;52.268;20.944;2023-01-19T08:17:59;99381.48;;;3.53;73.53
44441;BME280;30146;52.268;20.944;2023-01-19T08:20:28;99378.45;;;3.54;73.62
44441;BME280;30146;52.268;20.944;2023-01-19T08:22:56;99368.82;;;3.51;73.26
44441;BME280;30146;52.268;20.944;2023-01-19T08:25:32;99362.23;;;3.52;73.31
44441;BME280;30146;52.268;20.944;2023-01-19T08:28:00;99364.61;;;3.55;73.43
44441;BME280;30146;52.268;20.944;2023-01-19T08:30:29;99363.61;;;3.60;73.98
44441;BME280;30146;52.268;20.944;2023-01-19T08:32:57;99356.68;;;3.63;73.79
44441;BME280;30146;52.268;20.944;2023-01-19T08:35:31;99349.08;;;3.62;73.65
44441;BME280;30146;52.268;20.944;2023-01-19T08:38:00;99349.76;;;3.63;73.51
44441;BME280;30146;52.268;20.944;2023-01-19T08:40:28;99352.30;;;3.65;73.44
44441;BME280;30146;52.268;20.944;2023-01-19T08:42:58;99357.54;;;3.66;73.30
44441;BME280;30146;52.268;20.944;2023-01-19T08:45:30;99363.46;;;3.69;73.34
44441;BME280;30146;52.268;20.944;2023-01-19T08:47:59;99363.98;;;3.72;73.60
44441;BME280;30146;52.268;20.944;2023-01-19T08:50:27;99360.10;;;3.72;73.44
44441;BME280;30146;52.268;20.944;2023-01-19T08:52:57;99363.13;;;3.75;73.68
44441;BME280;30146;52.268;20.944;2023-01-19T08:55:27;99366.36;;;3.76;73.31
44441;BME280;30146;52.268;20.944;2023-01-19T08:57:56;99377.52;;;3.79;73.51
44441;BME280;30146;52.268;20.944;2023-01-19T09:00:27;99378.36;;;3.79;73.45
44441;BME280;30146;52.268;20.944;2023-01-19T09:02:57;99385.63;;;3.81;73.18
44441;BME280;30146;52.268;20.944;2023-01-19T09:05:26;99387.66;;;3.78;73.07
44441;BME280;30146;52.268;20.944;2023-01-19T09:07:54;99396.45;;;3.76;73.10
44441;BME280;30146;52.268;20.944;2023-01-19T09:10:21;99395.09;;;3.74;73.21
44441;BME280;30146;52.268;20.944;2023-01-19T09:12:49;99388.66;;;3.73;73.09
44441;BME280;30146;52.268;20.944;2023-01-19T09:15:19;99389.67;;;3.71;73.03
44441;BME280;30146;52.268;20.944;2023-01-19T09:17:47;99389.66;;;3.69;72.76
44441;BME280;30146;52.268;20.944;2023-01-19T09:20:15;99389.64;;;3.64;72.87
44441;BME280;30146;52.268;20.944;2023-01-19T09:22:44;99394.88;;;3.61;72.93
44441;BME280;30146;52.268;20.944;2023-01-19T09:25:14;99392.49;;;3.57;72.87
44441;BME280;30146;52.268;20.944;2023-01-19T09:27:42;99395.70;;;3.55;73.23
44441;BME280;30146;52.268;20.944;2023-01-19T09:30:12;99408.55;;;3.56;73.12
44441;BME280;30146;52.268;20.944;2023-01-19T09:32:40;99404.98;;;3.54;73.12
44441;BME280;30146;52.268;20.944;2023-01-19T09:35:09;99414.28;;;3.55;73.20
44441;BME280;30146;52.268;20.944;2023-01-19T09:37:37;99415.46;;;3.55;73.52
44441;BME280;30146;52.268;20.944;2023-01-19T09:40:09;99406.17;;;3.56;73.58
44441;BME280;30146;52.268;20.944;2023-01-19T09:42:41;99402.80;;;3.60;73.71
44441;BME280;30146;52.268;20.944;2023-01-19T09:45:15;99407.20;;;3.62;73.57
44441;BME280;30146;52.268;20.944;2023-01-19T09:47:46;99409.08;;;3.65;73.61
44441;BME280;30146;52.268;20.944;2023-01-19T09:50:19;99404.34;;;3.61;72.93
44441;BME280;30146;52.268;20.944;2023-01-19T09:52:55;99404.16;;;3.59;73.03
44441;BME280;30146;52.268;20.944;2023-01-19T09:55:25;99402.97;;;3.56;72.90
44441;BME280;30146;52.268;20.944;2023-01-19T09:57:54;99401.93;;;3.53;72.82
44441;BME280;30146;52.268;20.944;2023-01-19T10:00:23;99397.02;;;3.51;72.85
44441;BME280;30146;52.268;20.944;2023-01-19T10:02:57;99391.96;;;3.50;73.01
44441;BME280;30146;52.268;20.944;2023-01-19T10:05:29;99395.00;;;3.49;73.10
44441;BME280;30146;52.268;20.944;2023-01-19T10:08:11;99392.63;;;3.48;73.18
44441;BME280;30146;52.268;20.944;2023-01-19T10:10:46;99385.20;;;3.46;72.82
44441;BME280;30146;52.268;20.944;2023-01-19T10:13:34;99389.58;;;3.44;72.89
44441;BME280;30146;52.268;20.944;2023-01-19T10:16:18;99391.10;;;3.44;73.06
44441;BME280;30146;52.268;20.944;2023-01-19T10:18:50;99388.73;;;3.45;72.78
44441;BME280;30146;52.268;20.944;2023-01-19T10:21:21;99378.92;;;3.43;73.21
44441;BME280;30146;52.268;20.944;2023-01-19T10:23:54;99377.40;;;3.43;73.27
44441;BME280;30146;52.268;20.944;2023-01-19T10:26:24;99375.70;;;3.38;73.04
44441;BME280;30146;52.268;20.944;2023-01-19T10:29:00;99379.41;;;3.35;73.01
44441;BME280;30146;52.268;20.944;2023-01-19T10:31:29;99381.93;;;3.34;73.32
44441;BME280;30146;52.268;20.944;2023-01-19T10:33:59;99375.00;;;3.35;73.06
44441;BME280;30146;52.268;20.944;2023-01-19T10:36:33;99369.60;;;3.35;73.39
44441;BME280;30146;52.268;20.944;2023-01-19T10:39:04;99371.64;;;3.39;73.58
44441;BME280;30146;52.268;20.944;2023-01-19T10:41:39;99372.16;;;3.41;73.44
44441;BME280;30146;52.268;20.944;2023-01-19T10:44:09;99366.09;;;3.42;73.45
44441;BME280;30146;52.268;20.944;2023-01-19T10:46:42;99358.14;;;3.43;73.33
44441;BME280;30146;52.268;20.944;2023-01-19T10:49:23;99352.58;;;3.44;73.59
44441;BME280;30146;52.268;20.944;2023-01-19T10:51:53;99355.61;;;3.44;73.22
44441;BME280;30146;52.268;20.944;2023-01-19T10:54:22;99362.20;;;3.42;73.12
44441;BME280;30146;52.268;20.944;2023-01-19T10:56:53;99356.62;;;3.44;73.40
44441;BME280;30146;52.268;20.944;2023-01-19T10:59:33;99354.63;;;3.47;73.56
44441;BME280;30146;52.268;20.944;2023-01-19T11:02:16;99355.97;;;3.48;73.17
44441;BME280;30146;52.268;20.944;2023-01-19T11:04:44;99360.54;;;3.50;73.46
44441;BME280;30146;52.268;20.944;2023-01-19T11:07:19;99361.88;;;3.54;73.72
44441;BME280;30146;52.268;20.944;2023-01-19T11:09:48;99361.40;;;3.57;73.74
44441;BME280;30146;52.268;20.944;2023-01-19T11:12:18;99359.88;;;3.56;73.46
44441;BME280;30146;52.268;20.944;2023-01-19T11:14:49;99364.10;;;3.58;73.52
44441;BME280;30146;52.268;20.944;2023-01-19T11:17:19;99366.14;;;3.60;73.76
44441;BME280;30146;52.268;20.944;2023-01-19T11:19:58;99362.94;;;3.63;73.71
44441;BME280;30146;52.268;20.944;2023-01-19T11:22:29;99355.67;;;3.63;73.36
44441;BME280;30146;52.268;20.944;2023-01-19T11:24:59;99351.78;;;3.64;73.71
44441;BME280;30146;52.268;20.944;2023-01-19T11:27:29;99355.69;;;3.69;73.48
44441;BME280;30146;52.268;20.944;2023-01-19T11:30:03;99356.71;;;3.74;73.68
44441;BME280;30146;52.268;20.944;2023-01-19T11:32:36;99356.90;;;3.80;73.39
44441;BME280;30146;52.268;20.944;2023-01-19T11:35:32;99352.17;;;3.87;73.66
44441;BME280;30146;52.268;20.944;2023-01-19T11:38:16;99348.14;;;3.96;73.69
44441;BME280;30146;52.268;20.944;2023-01-19T11:40:51;99337.98;;;4.04;73.88
44441;BME280;30146;52.268;20.944;2023-01-19T11:43:21;99335.80;;;4.11;73.70
44441;BME280;30146;52.268;20.944;2023-01-19T11:45:50;99332.25;;;4.14;73.44
44441;BME280;30146;52.268;20.944;2023-01-19T11:48:24;99332.92;;;4.20;73.50
44441;BME280;30146;52.268;20.944;2023-01-19T11:50:54;99335.48;;;4.24;73.32
44441;BME280;30146;52.268;20.944;2023-01-19T11:53:26;99331.92;;;4.29;73.45
44441;BME280;30146;52.268;20.944;2023-01-19T11:55:58;99327.52;;;4.34;73.11
44441;BME280;30146;52.268;20.944;2023-01-19T11:58:29;99328.02;;;4.38;73.11
44441;BME280;30146;52.268;20.944;2023-01-19T12:01:02;99328.36;;;4.41;72.83
44441;BME280;30146;52.268;20.944;2023-01-19T12:03:36;99329.70;;;4.43;72.83
44441;BME280;30146;52.268;20.944;2023-01-19T12:06:08;99331.91;;;4.46;73.03
44441;BME280;30146;52.268;20.944;2023-01-19T12:08:43;99329.20;;;4.48;72.91
44441;BME280;30146;52.268;20.944;2023-01-19T12:11:16;99329.37;;;4.49;72.69
44441;BME280;30146;52.268;20.944;2023-01-19T12:13:46;99331.56;;;4.51;72.44
44441;BME280;30146;52.268;20.944;2023-01-19T12:16:20;99331.90;;;4.53;72.45
44441;BME280;30146;52.268;20.944;2023-01-19T12:18:53;99328.34;;;4.55;72.41
44441;BME280;30146;52.268;20.944;2023-01-19T12:21:22;99325.45;;;4.59;72.64
44441;BME280;30146;52.268;20.944;2023-01-19T12:24:00;99323.59;;;4.61;72.29
44441;BME280;30146;52.268;20.944;2023-01-19T12:26:35;99325.27;;;4.64;72.30
44441;BME280;30146;52.268;20.944;2023-01-19T12:29:11;99320.54;;;4.67;72.44
44441;BME280;30146;52.268;20.944;2023-01-19T12:31:39;99318.84;;;4.70;72.44
44441;BME280;30146;52.268;20.944;2023-01-19T12:34:41;99320.02;;;4.72;72.33
44441;BME280;30146;52.268;20.944;2023-01-19T12:37:29;99318.33;;;4.71;71.94
44441;BME280;30146;52.268;20.944;2023-01-19T12:40:00;99317.64;;;4.71;72.03
44441;BME280;30146;52.268;20.944;2023-01-19T12:42:30;99315.96;;;4.72;71.81
44441;BME280;30146;52.268;20.944;2023-01-19T12:45:06;99316.79;;;4.75;71.82
44441;BME280;30146;52.268;20.944;2023-01-19T12:47:36;99316.61;;;4.77;71.86
44441;BME280;30146;52.268;20.944;2023-01-19T12:50:06;99314.77;;;4.77;71.72
44441;BME280;30146;52.268;20.944;2023-01-19T12:52:41;99317.46;;;4.78;71.52
44441;BME280;30146;52.268;20.944;2023-01-19T12:55:20;99319.33;;;4.77;71.44
44441;BME280;30146;52.268;20.944;2023-01-19T12:57:54;99319.52;;;4.75;71.13
44441;BME280;30146;52.268;20.944;2023-01-19T13:00:44;99316.80;;;4.70;71.13
44441;BME280;30146;52.268;20.944;2023-01-19T13:03:43;99315.80;;;4.70;71.12
44441;BME280;30146;52.268;20.944;2023-01-19T13:06:11;99309.20;;;4.71;71.23
44441;BME280;30146;52.268;20.944;2023-01-19T13:08:59;99312.58;;;4.70;71.14
44441;BME280;30146;52.268;20.944;2023-01-19T13:11:27;99307.84;;;4.69;70.82
44441;BME280;30146;52.268;20.944;2023-01-19T13:17:23;99302.92;;;4.71;71.20
44441;BME280;30146;52.268;20.944;2023-01-19T13:23:15;99306.30;;;4.76;71.35
44441;BME280;30146;52.268;20.944;2023-01-19T13:25:47;99307.33;;;4.76;71.35
44441;BME280;30146;52.268;20.944;2023-01-19T13:28:18;99302.05;;;4.76;71.08